Parowan, Utah
Current Conditions -  °F | °C
As of 6:53 AM on Friday 28 Nov 2014 (Local Time) from KCDC Reporting Station
Clear Clear  
Wind Chill: 29°   Ceiling: Unl
Heat Index: 29°   Visibility: 10mi
Dew Point: 13°   Wind: 0mph
Humidity: 51%   Direction: NA
Pressure: 30.16"   Gusts: NA
Location:  37.84°N, 112.83°W
Report Text: KCDC 281353Z AUTO 00000KT 10SM CLR M02/M11 A3016 RMK AO2 SLP204 T10171106
Loading
Personal Weather Stations






























Interactive Weather Map New forecast layout! Learn more

10-Day Weather Forecast

Advertisements
Track Severe Weather on mobile